createdAt,value
2019-05-18T00:01:46.815Z,11.40
2019-05-18T00:04:15.853Z,11.40
2019-05-18T00:06:44.867Z,11.30
2019-05-18T00:09:13.770Z,11.30
2019-05-18T00:11:42.791Z,11.30
2019-05-18T00:14:11.755Z,11.30
2019-05-18T00:16:40.788Z,11.20
2019-05-18T00:19:09.836Z,11.20
2019-05-18T00:21:38.787Z,11.20
2019-05-18T00:24:07.859Z,11.20
2019-05-18T00:26:36.820Z,11.20
2019-05-18T00:29:05.874Z,11.20
2019-05-18T00:31:34.879Z,11.20
2019-05-18T00:34:03.846Z,11.20
2019-05-18T00:36:32.791Z,11.10
2019-05-18T00:39:01.683Z,11.10
2019-05-18T00:41:30.580Z,11.10
2019-05-18T00:43:59.625Z,11.10
2019-05-18T00:46:28.503Z,11.10
2019-05-18T00:48:57.404Z,11.00
2019-05-18T00:51:26.620Z,11.00
2019-05-18T00:53:55.907Z,10.90
2019-05-18T00:56:24.851Z,10.90
2019-05-18T00:58:53.752Z,10.80
2019-05-18T01:01:22.968Z,10.70
2019-05-18T01:03:51.928Z,10.70
2019-05-18T01:06:21.444Z,10.70
2019-05-18T01:08:50.545Z,10.70
2019-05-18T01:11:19.580Z,10.70
2019-05-18T01:13:48.551Z,10.70
2019-05-18T01:16:17.507Z,10.80
2019-05-18T01:18:46.484Z,10.70
2019-05-18T01:21:15.513Z,10.70
2019-05-18T01:23:44.388Z,10.70
2019-05-18T01:26:13.436Z,10.70
2019-05-18T01:28:42.428Z,10.70
2019-05-18T01:31:11.408Z,10.60
2019-05-18T01:33:40.289Z,10.60
2019-05-18T01:36:09.328Z,10.50
2019-05-18T01:38:38.281Z,10.40
2019-05-18T01:41:07.300Z,10.30
2019-05-18T01:43:36.221Z,10.30
2019-05-18T01:46:05.228Z,10.20
2019-05-18T01:48:34.105Z,10.10
2019-05-18T01:51:02.983Z,10.10
2019-05-18T01:53:31.949Z,10.10
2019-05-18T01:56:00.829Z,10.00
2019-05-18T01:58:29.773Z,10.00
2019-05-18T02:00:58.677Z,10.00
2019-05-18T02:03:27.617Z,10.00
2019-05-18T02:05:56.578Z,10.00
2019-05-18T02:08:26.313Z,10.00
2019-05-18T02:10:55.369Z,10.00
2019-05-18T02:13:24.901Z,9.90
2019-05-18T02:15:53.889Z,9.90
2019-05-18T02:18:29.111Z,9.90
2019-05-18T02:20:53.797Z,9.90
2019-05-18T02:23:22.749Z,9.90
2019-05-18T02:25:52.398Z,9.90
2019-05-18T02:28:21.566Z,9.80
2019-05-18T02:30:50.639Z,9.80
2019-05-18T02:33:19.681Z,9.80
2019-05-18T02:35:48.618Z,9.70
2019-05-18T02:38:17.955Z,9.70
2019-05-18T02:40:47.463Z,9.70
2019-05-18T02:43:16.844Z,9.70
2019-05-18T02:45:45.941Z,9.70
2019-05-18T02:48:14.956Z,9.70
2019-05-18T02:50:43.989Z,9.70
2019-05-18T02:53:13.016Z,9.70
2019-05-18T02:55:42.056Z,9.50
2019-05-18T02:58:10.989Z,9.70
2019-05-18T03:00:41.064Z,9.60
2019-05-18T03:03:10.047Z,9.60
2019-05-18T03:05:39.167Z,9.50
2019-05-18T03:08:08.287Z,9.50
2019-05-18T03:10:37.230Z,9.50
2019-05-18T03:13:06.709Z,9.50
2019-05-18T03:15:35.744Z,9.50
2019-05-18T03:18:05.197Z,9.50
2019-05-18T03:20:34.646Z,9.50
2019-05-18T03:23:03.699Z,9.40
2019-05-18T03:25:32.971Z,9.40
2019-05-18T03:28:02.240Z,9.40
2019-05-18T03:32:59.867Z,9.40
2019-05-18T03:35:28.817Z,9.20
2019-05-18T03:37:58.603Z,9.20
2019-05-18T03:40:27.536Z,9.20
2019-05-18T03:42:56.603Z,9.30
2019-05-18T03:45:25.534Z,9.20
2019-05-18T03:47:54.572Z,9.20
2019-05-18T03:50:23.686Z,9.20
2019-05-18T03:52:52.663Z,9.30
2019-05-18T03:55:21.757Z,9.30
2019-05-18T03:57:50.641Z,9.30
2019-05-18T04:00:19.740Z,9.20
2019-05-18T04:02:48.727Z,9.20
2019-05-18T04:05:17.951Z,9.20
2019-05-18T04:07:46.847Z,9.20
2019-05-18T04:10:22.820Z,9.20
2019-05-18T04:12:51.711Z,9.20
2019-05-18T04:15:20.732Z,9.20
2019-05-18T04:17:50.122Z,9.20
2019-05-18T04:20:19.173Z,9.30
2019-05-18T04:22:48.743Z,9.20
2019-05-18T04:25:17.692Z,9.30
2019-05-18T04:27:46.660Z,9.30
2019-05-18T04:30:15.913Z,9.30
2019-05-18T04:32:44.861Z,9.30
2019-05-18T04:35:13.914Z,9.40
2019-05-18T04:37:43.182Z,9.40
2019-05-18T04:40:12.979Z,9.50
2019-05-18T04:42:42.024Z,9.50
2019-05-18T04:45:11.216Z,9.60
2019-05-18T04:47:40.229Z,9.70
2019-05-18T04:50:09.377Z,9.80
2019-05-18T04:52:38.259Z,9.80
2019-05-18T04:55:07.411Z,9.90
2019-05-18T04:57:36.381Z,10.00
2019-05-18T05:00:05.861Z,10.10
2019-05-18T05:02:34.828Z,10.20
2019-05-18T05:05:03.964Z,10.30
2019-05-18T05:07:32.861Z,10.50
2019-05-18T05:10:04.647Z,10.60
2019-05-18T05:12:32.637Z,10.70
2019-05-18T05:15:01.654Z,10.90
2019-05-18T05:17:30.901Z,10.90
2019-05-18T05:19:59.849Z,11.10
2019-05-18T05:22:29.084Z,11.30
2019-05-18T05:24:57.994Z,11.40
2019-05-18T05:27:26.872Z,11.50
2019-05-18T05:29:55.769Z,11.60
2019-05-18T05:32:25.201Z,11.70
2019-05-18T05:34:54.128Z,11.70
2019-05-18T05:37:23.169Z,11.80
2019-05-18T05:39:52.206Z,11.90
2019-05-18T05:42:21.393Z,12.10
2019-05-18T05:44:50.485Z,12.30
2019-05-18T05:47:19.513Z,12.40
2019-05-18T05:49:48.473Z,12.40
2019-05-18T05:52:17.735Z,12.50
2019-05-18T05:54:46.609Z,12.60
2019-05-18T05:57:15.742Z,12.50
2019-05-18T05:59:44.702Z,12.70
2019-05-18T06:02:13.584Z,13.00
2019-05-18T06:04:42.565Z,13.20
2019-05-18T06:07:11.625Z,13.20
2019-05-18T06:09:40.585Z,13.30
2019-05-18T06:12:09.629Z,13.40
2019-05-18T06:14:39.090Z,13.50
2019-05-18T06:17:08.593Z,13.60
2019-05-18T06:19:37.569Z,13.70
2019-05-18T06:22:06.478Z,13.70
2019-05-18T06:24:35.380Z,13.80
2019-05-18T06:27:04.330Z,14.00
2019-05-18T06:29:33.274Z,14.00
2019-05-18T06:32:02.255Z,14.20
2019-05-18T06:34:31.130Z,14.40
2019-05-18T06:37:00.462Z,14.40
2019-05-18T06:39:29.455Z,14.50
2019-05-18T06:41:58.398Z,14.50
2019-05-18T06:44:27.414Z,14.60
2019-05-18T06:46:56.412Z,14.80
2019-05-18T06:49:25.411Z,14.90
2019-05-18T06:51:54.426Z,15.00
2019-05-18T06:54:23.515Z,15.10
2019-05-18T06:56:53.180Z,15.40
2019-05-18T06:59:23.139Z,15.60
2019-05-18T07:01:52.122Z,15.80
2019-05-18T07:04:21.126Z,16.00
2019-05-18T07:06:50.117Z,16.10
2019-05-18T07:09:19.163Z,16.30
2019-05-18T07:11:48.199Z,16.40
2019-05-18T07:14:25.420Z,16.60
2019-05-18T07:16:48.098Z,16.80
2019-05-18T07:19:17.202Z,17.10
2019-05-18T07:21:46.104Z,17.30
2019-05-18T07:24:15.605Z,17.50
2019-05-18T07:26:45.073Z,17.50
2019-05-18T07:29:14.479Z,17.50
2019-05-18T07:31:43.544Z,17.70
2019-05-18T07:34:12.571Z,18.00
2019-05-18T07:36:41.544Z,18.20
2019-05-18T07:39:10.434Z,18.50
2019-05-18T07:41:46.670Z,18.60
2019-05-18T07:44:10.463Z,18.80
2019-05-18T07:46:39.462Z,19.00
2019-05-18T07:49:08.763Z,19.20
2019-05-18T07:51:38.068Z,19.50
2019-05-18T07:54:06.988Z,19.60
2019-05-18T07:56:36.203Z,19.90
2019-05-18T07:59:05.264Z,19.90
2019-05-18T08:01:34.555Z,19.80
2019-05-18T08:04:03.675Z,20.00
2019-05-18T08:06:32.748Z,20.30
2019-05-18T08:09:01.720Z,20.00
2019-05-18T08:11:30.721Z,20.10
2019-05-18T08:14:00.021Z,20.30
2019-05-18T08:16:29.310Z,20.40
2019-05-18T08:18:58.594Z,20.70
2019-05-18T08:21:27.632Z,20.70
2019-05-18T08:23:56.779Z,21.00
2019-05-18T08:26:25.700Z,21.20
2019-05-18T08:28:54.849Z,21.20
2019-05-18T08:31:23.827Z,20.90
2019-05-18T08:33:52.763Z,21.00
2019-05-18T08:36:21.852Z,21.10
2019-05-18T08:38:51.816Z,21.00
2019-05-18T08:41:20.854Z,21.10
2019-05-18T08:43:49.740Z,21.20
2019-05-18T08:46:19.085Z,21.60
2019-05-18T08:48:47.983Z,21.80
2019-05-18T08:51:16.880Z,22.10
2019-05-18T08:53:45.842Z,22.40
2019-05-18T08:56:14.813Z,22.60
2019-05-18T08:58:43.848Z,22.80
2019-05-18T09:01:12.869Z,22.90
2019-05-18T09:03:41.885Z,22.60
2019-05-18T09:06:11.145Z,22.70
2019-05-18T09:08:40.117Z,22.80
2019-05-18T09:11:09.138Z,23.10
2019-05-18T09:13:38.101Z,23.40
2019-05-18T09:16:07.041Z,23.40
2019-05-18T09:18:36.077Z,23.30
2019-05-18T09:21:05.185Z,22.90
2019-05-18T09:23:34.190Z,22.80
2019-05-18T09:26:03.243Z,23.00
2019-05-18T09:28:32.223Z,23.10
2019-05-18T09:31:01.194Z,23.30
2019-05-18T09:33:30.154Z,23.60
2019-05-18T09:35:59.255Z,23.50
2019-05-18T09:38:28.310Z,23.80
2019-05-18T09:40:57.246Z,24.10
2019-05-18T09:43:26.266Z,24.10
2019-05-18T09:45:55.710Z,24.20
2019-05-18T09:48:24.934Z,24.30
2019-05-18T09:50:53.912Z,24.40
2019-05-18T09:53:22.905Z,24.60
2019-05-18T09:55:51.948Z,24.50
2019-05-18T09:58:21.007Z,24.70
2019-05-18T10:00:50.052Z,24.50
2019-05-18T10:03:19.075Z,24.80
2019-05-18T10:05:48.583Z,24.70
2019-05-18T10:08:17.539Z,24.50
2019-05-18T10:10:46.955Z,24.40
2019-05-18T10:13:15.944Z,24.10
2019-05-18T10:15:44.877Z,23.90
2019-05-18T10:18:13.947Z,23.70
2019-05-18T10:20:43.286Z,23.70
2019-05-18T10:23:13.836Z,23.80
2019-05-18T10:25:43.107Z,23.60
2019-05-18T10:28:12.023Z,23.80
2019-05-18T10:30:41.371Z,23.60
2019-05-18T10:33:10.490Z,23.70
2019-05-18T10:35:39.548Z,23.50
2019-05-18T10:38:08.646Z,23.80
2019-05-18T10:40:37.679Z,23.60
2019-05-18T10:43:06.651Z,24.10
2019-05-18T10:45:35.800Z,24.90
2019-05-18T10:48:04.914Z,25.30
2019-05-18T10:50:34.111Z,25.30
2019-05-18T10:53:03.476Z,25.60
2019-05-18T10:55:32.573Z,25.70
2019-05-18T10:58:01.664Z,25.60
2019-05-18T11:00:30.947Z,25.10
2019-05-18T11:02:59.859Z,24.70
2019-05-18T11:05:29.143Z,24.70
2019-05-18T11:07:58.183Z,24.70
2019-05-18T11:10:27.290Z,24.60
2019-05-18T11:12:56.307Z,24.60
2019-05-18T11:15:25.492Z,24.40
2019-05-18T11:17:54.447Z,24.20
2019-05-18T11:20:23.515Z,24.30
2019-05-18T11:22:52.621Z,24.30
2019-05-18T11:25:21.804Z,24.00
2019-05-18T11:27:50.796Z,24.40
2019-05-18T11:30:19.963Z,24.70
2019-05-18T11:32:49.091Z,24.70
2019-05-18T11:35:18.705Z,24.60
2019-05-18T11:37:47.776Z,24.60
2019-05-18T11:40:16.912Z,24.60
2019-05-18T11:42:45.976Z,24.70
2019-05-18T11:45:17.287Z,24.90
2019-05-18T11:47:46.442Z,24.90
2019-05-18T11:50:16.012Z,24.50
2019-05-18T11:52:45.048Z,24.20
2019-05-18T11:55:14.341Z,24.30
2019-05-18T11:57:43.396Z,24.30
2019-05-18T12:00:15.253Z,24.40
2019-05-18T12:02:44.424Z,24.70
2019-05-18T12:05:14.386Z,24.70
2019-05-18T12:07:43.377Z,24.60
2019-05-18T12:10:12.862Z,25.00
2019-05-18T12:12:42.369Z,25.30
2019-05-18T12:15:12.198Z,25.50
2019-05-18T12:17:41.173Z,25.40
2019-05-18T12:20:10.969Z,25.70
2019-05-18T12:22:40.197Z,26.10
2019-05-18T12:25:09.745Z,26.00
2019-05-18T12:27:38.873Z,26.40
2019-05-18T12:30:10.058Z,26.50
2019-05-18T12:32:39.106Z,25.90
2019-05-18T12:35:08.357Z,25.80
2019-05-18T12:37:37.418Z,25.90
2019-05-18T12:40:07.186Z,26.10
2019-05-18T12:42:36.294Z,26.40
2019-05-18T12:45:06.479Z,26.30
2019-05-18T12:47:35.538Z,26.40
2019-05-18T12:50:04.678Z,26.50
2019-05-18T12:52:34.165Z,26.50
2019-05-18T12:55:03.274Z,26.70
2019-05-18T12:57:32.650Z,26.80
2019-05-18T13:00:02.035Z,26.40
2019-05-18T13:02:31.098Z,26.30
2019-05-18T13:05:00.042Z,26.30
2019-05-18T13:07:28.927Z,25.90
2019-05-18T13:09:57.904Z,25.70
2019-05-18T13:12:26.811Z,25.50
2019-05-18T13:14:56.002Z,25.80
2019-05-18T13:17:25.031Z,26.00
2019-05-18T13:19:54.054Z,26.50
2019-05-18T13:22:23.018Z,26.70
2019-05-18T13:24:52.425Z,26.50
2019-05-18T13:27:21.466Z,26.20
2019-05-18T13:29:51.135Z,26.20
2019-05-18T13:32:20.163Z,26.00
2019-05-18T13:34:49.550Z,25.70
2019-05-18T13:37:18.975Z,25.60
2019-05-18T13:39:48.392Z,25.50
2019-05-18T13:42:17.503Z,25.40
2019-05-18T13:44:46.455Z,25.80
2019-05-18T13:47:15.555Z,25.60
2019-05-18T13:49:44.571Z,25.20
2019-05-18T13:52:13.791Z,25.20
2019-05-18T13:54:42.788Z,25.20
2019-05-18T13:57:11.803Z,25.20
2019-05-18T13:59:40.788Z,25.20
2019-05-18T14:02:09.956Z,25.30
2019-05-18T14:04:38.909Z,25.50
2019-05-18T14:07:08.228Z,25.90
2019-05-18T14:09:37.236Z,26.20
2019-05-18T14:12:12.612Z,26.40
2019-05-18T14:14:41.584Z,26.80
2019-05-18T14:17:10.582Z,27.00
2019-05-18T14:19:39.560Z,27.10
2019-05-18T14:22:08.600Z,27.10
2019-05-18T14:24:37.578Z,26.90
2019-05-18T14:27:06.556Z,26.80
2019-05-18T14:29:35.681Z,27.00
2019-05-18T14:32:04.792Z,26.80
2019-05-18T14:34:33.795Z,27.10
2019-05-18T14:37:02.765Z,27.30
2019-05-18T14:39:31.889Z,27.30
2019-05-18T14:42:01.088Z,27.60
2019-05-18T14:44:30.068Z,27.70
2019-05-18T14:46:59.077Z,27.60
2019-05-18T14:49:28.148Z,27.60
2019-05-18T14:51:57.113Z,27.60
2019-05-18T14:54:26.089Z,27.60
2019-05-18T14:56:55.069Z,27.50
2019-05-18T14:59:24.169Z,27.30
2019-05-18T15:01:53.284Z,27.20
2019-05-18T15:04:22.677Z,27.20
2019-05-18T15:06:51.745Z,27.40
2019-05-18T15:09:20.933Z,27.30
2019-05-18T15:11:49.825Z,27.20
2019-05-18T15:14:18.817Z,27.10
2019-05-18T15:16:47.737Z,26.70
2019-05-18T15:19:16.885Z,26.90
2019-05-18T15:21:45.889Z,26.80
2019-05-18T15:24:14.846Z,26.80
2019-05-18T15:26:43.912Z,26.80
2019-05-18T15:29:12.875Z,26.70
2019-05-18T15:31:41.814Z,26.50
2019-05-18T15:34:10.810Z,26.30
2019-05-18T15:36:40.215Z,26.30
2019-05-18T15:39:09.238Z,26.00
2019-05-18T15:41:38.227Z,26.10
2019-05-18T15:44:07.265Z,25.90
2019-05-18T15:46:36.308Z,26.00
2019-05-18T15:49:05.372Z,26.00
2019-05-18T15:51:34.492Z,25.80
2019-05-18T15:54:03.617Z,25.80
2019-05-18T15:56:32.583Z,25.60
2019-05-18T15:59:01.540Z,25.80
2019-05-18T16:01:30.436Z,25.60
2019-05-18T16:03:59.475Z,25.50
2019-05-18T16:06:28.520Z,25.60
2019-05-18T16:08:57.540Z,25.40
2019-05-18T16:11:26.568Z,25.20
2019-05-18T16:13:55.532Z,25.10
2019-05-18T16:16:24.669Z,25.10
2019-05-18T16:18:53.627Z,24.90
2019-05-18T16:21:22.932Z,24.90
2019-05-18T16:23:52.215Z,25.10
2019-05-18T16:26:22.116Z,25.00
2019-05-18T16:28:51.215Z,25.20
2019-05-18T16:31:20.216Z,24.90
2019-05-18T16:33:49.231Z,24.90
2019-05-18T16:36:18.185Z,25.00
2019-05-18T16:38:47.176Z,25.10
2019-05-18T16:41:16.196Z,25.10
2019-05-18T16:43:45.508Z,25.10
2019-05-18T16:46:14.880Z,25.00
2019-05-18T16:48:43.938Z,24.90
2019-05-18T16:51:12.969Z,24.90
2019-05-18T16:53:42.035Z,24.90
2019-05-18T16:56:11.005Z,24.80
2019-05-18T16:58:39.973Z,24.80
2019-05-18T17:01:09.037Z,24.60
2019-05-18T17:03:38.349Z,24.60
2019-05-18T17:06:07.415Z,24.50
2019-05-18T17:08:36.368Z,24.40
2019-05-18T17:11:05.426Z,24.40
2019-05-18T17:13:34.454Z,24.40
2019-05-18T17:16:04.309Z,24.50
2019-05-18T17:18:33.359Z,24.50
2019-05-18T17:21:02.453Z,24.50
2019-05-18T17:23:31.481Z,24.30
2019-05-18T17:26:00.398Z,24.30
2019-05-18T17:28:29.785Z,24.30
2019-05-18T17:30:58.749Z,24.20
2019-05-18T17:33:27.702Z,24.20
2019-05-18T17:36:00.412Z,24.20
2019-05-18T17:38:27.865Z,24.20
2019-05-18T17:40:57.130Z,24.10
2019-05-18T17:43:26.100Z,24.10
2019-05-18T17:45:55.151Z,24.10
2019-05-18T17:48:24.202Z,24.00
2019-05-18T17:50:53.170Z,24.10
2019-05-18T17:53:22.706Z,24.00
2019-05-18T17:55:51.802Z,24.10
2019-05-18T17:58:21.088Z,24.00
2019-05-18T18:00:50.225Z,23.90
2019-05-18T18:03:19.333Z,23.90
2019-05-18T18:05:48.367Z,23.90
2019-05-18T18:08:17.427Z,23.90
2019-05-18T18:10:46.387Z,23.80
2019-05-18T18:13:15.798Z,23.80
2019-05-18T18:15:44.777Z,23.80
2019-05-18T18:18:13.763Z,23.80
2019-05-18T18:20:42.648Z,23.80
2019-05-18T18:23:11.683Z,23.70
2019-05-18T18:25:40.719Z,23.60
2019-05-18T18:28:10.151Z,23.60
2019-05-18T18:30:39.267Z,23.60
2019-05-18T18:33:08.255Z,23.50
2019-05-18T18:35:39.530Z,23.30
2019-05-18T18:38:08.236Z,23.10
2019-05-18T18:40:37.296Z,23.10
2019-05-18T18:43:06.756Z,22.90
2019-05-18T18:45:35.868Z,22.60
2019-05-18T18:48:05.356Z,22.20
2019-05-18T18:50:34.712Z,21.60
2019-05-18T18:53:03.749Z,21.20
2019-05-18T18:55:32.733Z,21.00
2019-05-18T18:58:01.948Z,20.80
2019-05-18T19:00:31.480Z,20.80
2019-05-18T19:03:00.536Z,20.90
2019-05-18T19:05:29.654Z,20.90
2019-05-18T19:07:58.564Z,20.90
2019-05-18T19:10:27.631Z,20.90
2019-05-18T19:12:56.745Z,20.90
2019-05-18T19:15:25.816Z,21.00
2019-05-18T19:17:54.897Z,20.90
2019-05-18T19:20:23.876Z,20.90
2019-05-18T19:22:52.825Z,20.90
2019-05-18T19:25:21.835Z,20.80
2019-05-18T19:27:54.970Z,20.70
2019-05-18T19:30:21.704Z,20.60
2019-05-18T19:32:50.899Z,20.50
2019-05-18T19:35:19.901Z,20.30
2019-05-18T19:37:49.149Z,20.40
2019-05-18T19:40:18.429Z,20.30
2019-05-18T19:42:47.559Z,20.30
2019-05-18T19:45:16.773Z,20.30
2019-05-18T19:47:46.313Z,20.30
2019-05-18T19:50:15.530Z,20.10
2019-05-18T19:52:44.522Z,20.10
2019-05-18T19:55:13.577Z,20.20
2019-05-18T19:57:42.566Z,20.10
2019-05-18T20:00:12.173Z,20.00
2019-05-18T20:02:41.262Z,19.80
2019-05-18T20:05:10.907Z,19.70
2019-05-18T20:07:40.321Z,19.70
2019-05-18T20:10:09.838Z,19.70
2019-05-18T20:12:38.857Z,19.60
2019-05-18T20:15:09.576Z,19.60
2019-05-18T20:17:39.066Z,19.60
2019-05-18T20:20:09.269Z,19.60
2019-05-18T20:22:38.367Z,19.50
2019-05-18T20:25:07.655Z,19.40
2019-05-18T20:27:36.734Z,19.40
2019-05-18T20:30:06.331Z,19.40
2019-05-18T20:32:35.303Z,19.40
2019-05-18T20:35:04.456Z,19.40
2019-05-18T20:37:33.777Z,19.30
2019-05-18T20:40:02.793Z,19.20
2019-05-18T20:42:32.235Z,19.20
2019-05-18T20:45:01.262Z,19.10
2019-05-18T20:47:30.298Z,19.10
2019-05-18T20:49:59.667Z,19.10
2019-05-18T20:52:28.708Z,19.10
2019-05-18T20:54:58.594Z,19.00
2019-05-18T20:57:27.683Z,18.90
2019-05-18T20:59:56.654Z,18.90
2019-05-18T21:02:25.740Z,18.90
2019-05-18T21:04:54.828Z,18.80
2019-05-18T21:07:23.870Z,18.80
2019-05-18T21:09:53.021Z,18.80
2019-05-18T21:12:22.179Z,18.70
2019-05-18T21:14:51.176Z,18.70
2019-05-18T21:17:20.148Z,18.70
2019-05-18T21:19:49.161Z,18.70
2019-05-18T21:22:18.234Z,18.60
2019-05-18T21:24:47.532Z,18.60
2019-05-18T21:27:16.639Z,18.60
2019-05-18T21:29:45.787Z,18.60
2019-05-18T21:32:14.886Z,18.50
2019-05-18T21:34:44.200Z,18.50
2019-05-18T21:37:13.196Z,18.50
2019-05-18T21:39:42.110Z,18.40
2019-05-18T21:42:11.288Z,18.30
2019-05-18T21:44:40.344Z,18.30
2019-05-18T21:47:09.419Z,18.30
2019-05-18T21:49:38.556Z,18.30
2019-05-18T21:52:07.676Z,18.30
2019-05-18T21:54:36.684Z,18.20
2019-05-18T21:57:05.659Z,18.10
2019-05-18T21:59:34.793Z,18.10
2019-05-18T22:02:03.944Z,18.10
2019-05-18T22:04:32.933Z,18.10
2019-05-18T22:07:02.079Z,18.10
2019-05-18T22:09:31.243Z,18.00
2019-05-18T22:12:00.161Z,18.00
2019-05-18T22:14:29.723Z,17.80
2019-05-18T22:16:59.357Z,17.70
2019-05-18T22:19:28.385Z,17.70
2019-05-18T22:21:57.376Z,17.60
2019-05-18T22:24:26.430Z,17.60
2019-05-18T22:26:55.685Z,17.50
2019-05-18T22:29:24.649Z,17.50
2019-05-18T22:31:53.700Z,17.40
2019-05-18T22:34:22.789Z,17.30
2019-05-18T22:36:52.201Z,17.20
2019-05-18T22:39:21.154Z,17.20
2019-05-18T22:41:50.129Z,17.00
2019-05-18T22:44:19.029Z,17.00
2019-05-18T22:46:47.973Z,17.00
2019-05-18T22:49:17.049Z,16.80
2019-05-18T22:51:46.109Z,16.80
2019-05-18T22:54:15.139Z,16.80
2019-05-18T22:56:44.237Z,16.80
2019-05-18T22:59:13.199Z,16.70
2019-05-18T23:01:42.225Z,16.60
2019-05-18T23:04:11.466Z,16.50
2019-05-18T23:06:40.439Z,16.50
2019-05-18T23:09:09.502Z,16.50
2019-05-18T23:11:38.538Z,16.40
2019-05-18T23:14:07.612Z,16.30
2019-05-18T23:16:36.666Z,16.20
2019-05-18T23:19:06.022Z,16.20
2019-05-18T23:21:34.930Z,16.20
2019-05-18T23:24:04.094Z,16.20
2019-05-18T23:26:33.050Z,16.10
2019-05-18T23:29:01.997Z,16.00
2019-05-18T23:31:31.036Z,15.90
2019-05-18T23:33:59.903Z,15.90
2019-05-18T23:36:29.011Z,15.90
2019-05-18T23:38:58.223Z,15.80
2019-05-18T23:41:27.183Z,15.70
2019-05-18T23:43:56.415Z,15.70
2019-05-18T23:46:25.375Z,15.60
2019-05-18T23:48:54.343Z,15.60
2019-05-18T23:51:23.435Z,15.60
2019-05-18T23:53:53.888Z,15.70
2019-05-18T23:56:23.307Z,15.50
2019-05-18T23:58:52.337Z,15.50
